PWSweather.com
Personal Weather Stations
Station Observations
MADWEATHER
MadeiraPT

MadeiraPT

Lat: 32.735, Lon: -17.194

Elevation: 1063

Station Type: Davis VantagePro2

Latest ConditionsUpdated 4:00:01 AM GMT Thursday, Mar 5, 2015
Currently Today's Max Today's Min Today's Average
Temperature 53.9°F12.2°C 55.0°F12.8°C 53.8°F12.1°C 54.5°F12.5°C
Dew Point 50.1°F10.1°C 50.9°F10.5°C 48.8°F9.3°C 50.0°F10.0°C
Winds 1.7 mph NW2.7 kmh NW 5.2 mph NW8.4 kmh NW - 1.8 mph 2.9 kmh
Wind Gusts 4.0 mph6.4 kmh 7.0 mph11.3 kmh - -
Humidity 87% 87% 82% 85%
Pressure 30.22 in1023.4 mb 30.27 in1025.1 mb 30.22 in1023.4 mb -
Hour Temp Dew Point Humidity Winds Wind Gusts Pressure Precip Precip Rate Daily Precip Total
04:00 AM 53.9°F12.2°C 50.1°F10.1°C 87% 1.7 mph NW2.7 kmh NW 4.0 mph6.4 kmh 30.22 in1023.4 mb 0.00 in0.0 mm 0.00 in/hr0.0 mm/hr 0.00 in0.0 mm
03:50 AM 53.8°F12.1°C 49.7°F9.8°C 86% 2.2 mph NW3.5 kmh NW 4.0 mph6.4 kmh 30.22 in1023.4 mb 0.00 in0.0 mm 0.00 in/hr0.0 mm/hr 0.00 in0.0 mm
03:40 AM 53.8°F12.1°C 49.4°F9.7°C 85% 2.4 mph NW3.9 kmh NW 4.0 mph6.4 kmh 30.22 in1023.4 mb 0.00 in0.0 mm 0.00 in/hr0.0 mm/hr 0.00 in0.0 mm
03:30 AM 54.0°F12.2°C 49.3°F9.6°C 84% 2.9 mph NW4.7 kmh NW 5.0 mph8.0 kmh 30.23 in1023.7 mb 0.00 in0.0 mm 0.00 in/hr0.0 mm/hr 0.00 in0.0 mm
03:20 AM 54.1°F12.3°C 49.4°F9.7°C 84% 0.7 mph NW1.1 kmh NW 4.0 mph6.4 kmh 30.23 in1023.7 mb 0.00 in0.0 mm 0.00 in/hr0.0 mm/hr 0.00 in0.0 mm
03:10 AM 54.4°F12.4°C 50.0°F10.0°C 85% 0.7 mph NW1.1 kmh NW -- 30.23 in1023.7 mb 0.00 in0.0 mm 0.00 in/hr0.0 mm/hr 0.00 in0.0 mm
03:00 AM 54.7°F12.6°C 50.6°F10.3°C 86% 2.4 mph NW3.9 kmh NW 3.0 mph4.8 kmh 30.23 in1023.7 mb 0.00 in0.0 mm 0.00 in/hr0.0 mm/hr 0.00 in0.0 mm
02:50 AM 54.7°F12.6°C 50.3°F10.2°C 85% 2.4 mph NW3.9 kmh NW 3.0 mph4.8 kmh 30.23 in1023.7 mb 0.00 in0.0 mm 0.00 in/hr0.0 mm/hr 0.00 in0.0 mm
02:40 AM 54.7°F12.6°C 50.3°F10.2°C 85% 2.0 mph NW3.2 kmh NW 5.0 mph8.0 kmh 30.23 in1023.7 mb 0.00 in0.0 mm 0.00 in/hr0.0 mm/hr 0.00 in0.0 mm
02:30 AM 54.8°F12.7°C 50.4°F10.2°C 85% 1.1 mph NW1.8 kmh NW 2.0 mph3.2 kmh 30.24 in1024.0 mb 0.00 in0.0 mm 0.00 in/hr0.0 mm/hr 0.00 in0.0 mm
02:20 AM 54.8°F12.7°C 50.4°F10.2°C 85% 0.7 mph NW1.1 kmh NW 2.0 mph3.2 kmh 30.24 in1024.0 mb 0.00 in0.0 mm 0.00 in/hr0.0 mm/hr 0.00 in0.0 mm
02:10 AM 54.9°F12.7°C 50.8°F10.4°C 86% 0.5 mph NW0.8 kmh NW 1.0 mph1.6 kmh 30.24 in1024.0 mb 0.00 in0.0 mm 0.00 in/hr0.0 mm/hr 0.00 in0.0 mm
02:00 AM 54.8°F12.7°C 50.4°F10.2°C 85% 2.0 mph NW3.2 kmh NW 4.0 mph6.4 kmh 30.24 in1024.0 mb 0.00 in0.0 mm 0.00 in/hr0.0 mm/hr 0.00 in0.0 mm
01:50 AM 54.9°F12.7°C 50.5°F10.3°C 85% 1.5 mph NW2.4 kmh NW 3.0 mph4.8 kmh 30.24 in1024.0 mb 0.00 in0.0 mm 0.00 in/hr0.0 mm/hr 0.00 in0.0 mm
01:40 AM 55.0°F12.8°C 50.9°F10.5°C 86% 1.4 mph NW2.3 kmh NW 5.0 mph8.0 kmh 30.25 in1024.4 mb 0.00 in0.0 mm 0.00 in/hr0.0 mm/hr 0.00 in0.0 mm
01:30 AM 54.6°F12.6°C 50.5°F10.3°C 86% 5.2 mph NW8.4 kmh NW 7.0 mph11.3 kmh 30.25 in1024.4 mb 0.00 in0.0 mm 0.00 in/hr0.0 mm/hr 0.00 in0.0 mm
01:20 AM 54.4°F12.4°C 49.7°F9.8°C 84% 1.3 mph NW2.1 kmh NW 3.0 mph4.8 kmh 30.25 in1024.4 mb 0.00 in0.0 mm 0.00 in/hr0.0 mm/hr 0.00 in0.0 mm
01:10 AM 54.6°F12.6°C 50.2°F10.1°C 85% 2.3 mph NW3.7 kmh NW 5.0 mph8.0 kmh 30.25 in1024.4 mb 0.00 in0.0 mm 0.00 in/hr0.0 mm/hr 0.00 in0.0 mm
01:00 AM 54.9°F12.7°C 50.8°F10.4°C 86% 1.1 mph NW1.8 kmh NW 4.0 mph6.4 kmh 30.26 in1024.7 mb 0.00 in0.0 mm 0.00 in/hr0.0 mm/hr 0.00 in0.0 mm
12:50 AM 54.6°F12.6°C 49.9°F9.9°C 84% 1.9 mph NW3.1 kmh NW 4.0 mph6.4 kmh 30.26 in1024.7 mb 0.00 in0.0 mm 0.00 in/hr0.0 mm/hr 0.00 in0.0 mm
12:40 AM 54.5°F12.5°C 49.4°F9.7°C 83% 1.8 mph NW2.9 kmh NW 4.0 mph6.4 kmh 30.26 in1024.7 mb 0.00 in0.0 mm 0.00 in/hr0.0 mm/hr 0.00 in0.0 mm
12:30 AM 54.4°F12.4°C 49.4°F9.7°C 83% 1.9 mph NW3.1 kmh NW 4.0 mph6.4 kmh 30.27 in1025.1 mb 0.00 in0.0 mm 0.00 in/hr0.0 mm/hr 0.00 in0.0 mm
12:20 AM 54.2°F12.3°C 48.8°F9.3°C 82% 0.3 mph NW0.5 kmh NW 2.0 mph3.2 kmh 30.27 in1025.1 mb 0.00 in0.0 mm 0.00 in/hr0.0 mm/hr 0.00 in0.0 mm
12:10 AM 54.3°F12.4°C 49.2°F9.6°C 83% 2.2 mph NW3.5 kmh NW 5.0 mph8.0 kmh 30.27 in1025.1 mb 0.00 in0.0 mm 0.00 in/hr0.0 mm/hr 0.00 in0.0 mm
12:00 AM 54.4°F12.4°C 49.7°F9.8°C 84% 2.1 mph NW3.4 kmh NW 4.0 mph6.4 kmh 30.27 in1025.1 mb 0.00 in0.0 mm 0.00 in/hr0.0 mm/hr 0.00 in0.0 mm